ADDS METAR Data INFO
IDs: Format: Raw Decoded Include TAF

Data at: 0704 UTC 19 Oct 2017

KBGR 190653Z 00000KT 10SM CLR 05/03 A3021 RMK AO2 SLP229 T00500028
KBGR 190553Z 18004KT 10SM CLR 07/03 A3022 RMK AO2 SLP232 T00720033 10106 20050 58005
KBGR 190453Z 00000KT 10SM CLR 06/03 A3022 RMK AO2 SLP234 T00610028 402000050
KBGR 190353Z 20003KT 10SM CLR 06/02 A3024 RMK AO2 SLP238 T00610017
KBGR 190253Z 00000KT 10SM CLR 07/02 A3023 RMK AO2 SLP237 T00720022 51007
KBGR 190153Z 00000KT 10SM CLR 07/02 A3023 RMK AO2 SLP237 T00670017
KBGR 190053Z 00000KT 10SM CLR 08/02 A3022 RMK AO2 SLP234 T00780017
KBGR 182353Z 24005KT 10SM CLR 09/02 A3021 RMK AO2 SLP231 T00940017 10200 20094 53018
KBGR 182253Z 31004KT 10SM CLR 12/02 A3020 RMK AO2 SLP225 T01170022
KBGR 182153Z 27003KT 10SM FEW250 15/01 A3017 RMK AO2 SLP217 T01500011
KBGR 182053Z 30005KT 10SM FEW250 19/M01 A3016 RMK AO2 SLP211 T01891006 53008
KBGR 181953Z 32011G16KT 10SM FEW250 20/M02 A3015 RMK AO2 SLP208 T02001017
KBGR 181853Z 31013KT 10SM CLR 20/M02 A3013 RMK AO2 SLP203 T02001017
KBGR 181753Z 28011G22KT 10SM CLR 20/00 A3014 RMK AO2 SLP204 T02000000 10200 20078 58005
KBGR 181653Z 30008G16KT 250V320 10SM FEW050 18/03 A3015 RMK AO2 SLP207 T01830033
KBGR 181553Z 29012G18KT 10SM FEW050 18/05 A3015 RMK AO2 SLP210 T01780050
KBGR 181453Z 28010G18KT 260V330 10SM FEW040 17/06 A3015 RMK AO2 SLP209 T01720056 50013
KBGR 181353Z 24007KT 10SM FEW040 15/04 A3015 RMK AO2 SLP209 T01500044
KBGR 181253Z COR 22003KT 10SM CLR 11/02 A3013 RMK AO2 SLP204 T01060022
KBGR 181153Z 20005KT 10SM SCT120 08/01 A3011 RMK AO2 SLP197 T00780011 10100 20067 53014
KBGR 181053Z 21004KT 10SM BKN120 08/01 A3010 RMK AO2 SLP192 T00780006
KBGR 180953Z 22007KT 10SM SCT090 09/00 A3008 RMK AO2 SLP187 T00890000
KBGR 180853Z 21005KT 10SM BKN090 09/01 A3007 RMK AO2 SLP183 T00940006 55002
KBGR 180753Z 20005KT 10SM OVC075 09/02 A3007 RMK AO2 SLP182 T00940017
KBGR 180653Z 19007KT 10SM OVC075 09/02 A3006 RMK AO2 SLP180 T00940022
KBGR 180553Z 19007KT 10SM SCT075 OVC110 09/03 A3008 RMK AO2 SLP186 T00940028 10094 20078 58021
KBGR 180453Z 19006KT 10SM BKN090 09/03 A3010 RMK AO2 SLP193 T00940033 401281011
KBGR 180353Z 21006KT 10SM BKN090 OVC110 09/03 A3012 RMK AO2 SLP200 T00890033
KBGR 180253Z 19010KT 10SM BKN090 09/03 A3014 RMK AO2 SLP207 T00890028 50002
KBGR 180153Z 20009KT 10SM BKN100 08/02 A3015 RMK AO2 SLP210 T00830017
KBGR 180053Z 19009KT 10SM CLR 08/00 A3015 RMK AO2 SLP210 T00780000
KBGR 172353Z 19006KT 10SM CLR 08/02 A3014 RMK AO2 SLP206 T00780022 10128 20078 56001
KBGR 172253Z 18006KT 10SM FEW100 09/01 A3014 RMK AO2 SLP206 T00890011
KBGR 172153Z 20004KT 10SM FEW100 11/M02 A3014 RMK AO2 SLP207 T01061017
KBGR 172053Z 24005KT 10SM FEW080 12/M02 A3014 RMK AO2 SLP207 T01171017 56009
KBGR 171953Z 00000KT 10SM FEW060 12/M02 A3015 RMK AO2 SLP210 T01221022